world map with EGFP marked

EGFP - Airport

This information may not be accurate or current and is not valid for navigation or flight planning. No warranty of fitness for any purpose is made or implied.

flag of Walesflag of United Kingdom

Donate via PayPal

Additional information is available on the NEW Great Circle Mapper

Location
City:  Pembry Sands, Carmarthen, Wales, United Kingdom
ICAO:EGFP

Details
Type:Airport (Aerodrome, Airfield)
Latitude:51°42'N (51.706)
Longitude:4°22'W (-4.360)
Runways:unknown number
Longest:2635 ft (803 m)

Time
Timezone:UTC+0 (DST+3)
Local Time:

Weather
METAR:EGOP  041350Z AUTO 01006KT 9999 // FEW016/// BKN026/// 09/07 Q1017

Related Locations
Nearby:
Farthest:NZBA: 11970 mi / 19264 km
Balclutha, OTA, NZ

Find:

   beyond  
but within

Other Information
Maps:
Sources:

  


 


Great Circle Mapper   Great Circle Mapper
Great Circle Mapper FAQ   Great Circle Mapper FAQ
  Karl's Home Page
KLSē   KLSē Home
   GC on Facebook
Airlines of the World   Airlines of the World
Donate via PayPal


Copyright © 2004-2020, Karl L. Swartz. All rights reserved.
All trademarks mentioned herein belong to their respective owners.

Please see credits for attribution and copyright information.

Karl Swartz <karl@kls2.com>
  Powered by FreeBSD
Valid HTML 4.01!
Labeled with ICRA
hCard Microformat
Geo Microformat